sensor_id;sensor_type;location;lat;lon;timestamp;temperature;humidity
8633;DHT22;4354;49.832;10.746;2023-04-24T00:01:07;10.90;1.00
8633;DHT22;4354;49.832;10.746;2023-04-24T00:03:35;10.80;99.90
8633;DHT22;4354;49.832;10.746;2023-04-24T00:06:03;10.90;99.90
8633;DHT22;4354;49.832;10.746;2023-04-24T00:08:30;10.90;1.00
8633;DHT22;4354;49.832;10.746;2023-04-24T00:10:57;11.00;93.10
8633;DHT22;4354;49.832;10.746;2023-04-24T00:13:23;11.00;1.00
8633;DHT22;4354;49.832;10.746;2023-04-24T00:15:50;11.00;1.00
8633;DHT22;4354;49.832;10.746;2023-04-24T00:18:17;11.00;1.00
8633;DHT22;4354;49.832;10.746;2023-04-24T00:20:44;11.00;1.00
8633;DHT22;4354;49.832;10.746;2023-04-24T00:23:11;10.90;1.00
8633;DHT22;4354;49.832;10.746;2023-04-24T00:25:38;10.80;1.00
8633;DHT22;4354;49.832;10.746;2023-04-24T00:28:05;10.80;99.90
8633;DHT22;4354;49.832;10.746;2023-04-24T00:30:32;10.70;1.00
8633;DHT22;4354;49.832;10.746;2023-04-24T00:32:59;10.60;99.90
8633;DHT22;4354;49.832;10.746;2023-04-24T00:35:26;10.50;99.90
8633;DHT22;4354;49.832;10.746;2023-04-24T00:37:53;10.40;99.90
8633;DHT22;4354;49.832;10.746;2023-04-24T00:40:19;10.40;1.00
8633;DHT22;4354;49.832;10.746;2023-04-24T00:42:46;10.30;1.00
8633;DHT22;4354;49.832;10.746;2023-04-24T00:45:13;10.20;1.00
8633;DHT22;4354;49.832;10.746;2023-04-24T00:47:41;10.20;1.00
8633;DHT22;4354;49.832;10.746;2023-04-24T00:50:09;10.10;1.00
8633;DHT22;4354;49.832;10.746;2023-04-24T00:52:36;10.20;1.00
8633;DHT22;4354;49.832;10.746;2023-04-24T00:55:04;10.10;1.00
8633;DHT22;4354;49.832;10.746;2023-04-24T00:57:30;10.20;1.00
8633;DHT22;4354;49.832;10.746;2023-04-24T00:59:57;10.20;1.00
8633;DHT22;4354;49.832;10.746;2023-04-24T01:02:24;10.20;1.00
8633;DHT22;4354;49.832;10.746;2023-04-24T01:04:52;10.20;1.00
8633;DHT22;4354;49.832;10.746;2023-04-24T01:07:22;10.20;1.00
8633;DHT22;4354;49.832;10.746;2023-04-24T01:09:49;10.20;1.00
8633;DHT22;4354;49.832;10.746;2023-04-24T01:12:19;10.30;1.00
8633;DHT22;4354;49.832;10.746;2023-04-24T01:14:49;10.30;1.00
8633;DHT22;4354;49.832;10.746;2023-04-24T01:17:16;10.40;99.90
8633;DHT22;4354;49.832;10.746;2023-04-24T01:19:42;10.40;1.00
8633;DHT22;4354;49.832;10.746;2023-04-24T01:22:13;10.50;1.00
8633;DHT22;4354;49.832;10.746;2023-04-24T01:24:41;10.50;1.00
8633;DHT22;4354;49.832;10.746;2023-04-24T01:27:10;10.50;1.00
8633;DHT22;4354;49.832;10.746;2023-04-24T01:29:37;10.40;1.00
8633;DHT22;4354;49.832;10.746;2023-04-24T01:32:05;10.40;99.90
8633;DHT22;4354;49.832;10.746;2023-04-24T01:34:32;10.50;1.00
8633;DHT22;4354;49.832;10.746;2023-04-24T01:37:00;10.50;99.90
8633;DHT22;4354;49.832;10.746;2023-04-24T01:39:26;10.60;1.00
8633;DHT22;4354;49.832;10.746;2023-04-24T01:41:55;10.60;99.90
8633;DHT22;4354;49.832;10.746;2023-04-24T01:44:23;10.70;1.00
8633;DHT22;4354;49.832;10.746;2023-04-24T01:46:50;10.80;99.90
8633;DHT22;4354;49.832;10.746;2023-04-24T01:49:17;10.80;1.00
8633;DHT22;4354;49.832;10.746;2023-04-24T01:51:44;10.90;1.00
8633;DHT22;4354;49.832;10.746;2023-04-24T01:54:12;10.90;1.00
8633;DHT22;4354;49.832;10.746;2023-04-24T01:56:42;11.00;99.90
8633;DHT22;4354;49.832;10.746;2023-04-24T01:59:10;11.00;99.90
8633;DHT22;4354;49.832;10.746;2023-04-24T02:01:38;11.10;99.90
8633;DHT22;4354;49.832;10.746;2023-04-24T02:04:05;11.10;99.90
8633;DHT22;4354;49.832;10.746;2023-04-24T02:06:33;11.10;99.90
8633;DHT22;4354;49.832;10.746;2023-04-24T02:09:00;11.10;1.00
8633;DHT22;4354;49.832;10.746;2023-04-24T02:11:27;11.10;68.80
8633;DHT22;4354;49.832;10.746;2023-04-24T02:13:54;11.10;1.00
8633;DHT22;4354;49.832;10.746;2023-04-24T02:16:21;11.10;1.00
8633;DHT22;4354;49.832;10.746;2023-04-24T02:18:48;11.10;1.00
8633;DHT22;4354;49.832;10.746;2023-04-24T02:21:14;11.00;99.90
8633;DHT22;4354;49.832;10.746;2023-04-24T02:23:41;11.00;1.00
8633;DHT22;4354;49.832;10.746;2023-04-24T02:26:08;10.90;99.90
8633;DHT22;4354;49.832;10.746;2023-04-24T02:28:35;10.90;1.00
8633;DHT22;4354;49.832;10.746;2023-04-24T02:31:02;10.80;1.00
8633;DHT22;4354;49.832;10.746;2023-04-24T02:33:28;10.80;99.90
8633;DHT22;4354;49.832;10.746;2023-04-24T02:35:55;10.70;99.90
8633;DHT22;4354;49.832;10.746;2023-04-24T02:38:22;10.70;99.90
8633;DHT22;4354;49.832;10.746;2023-04-24T02:40:49;10.70;99.90
8633;DHT22;4354;49.832;10.746;2023-04-24T02:43:16;10.70;99.90
8633;DHT22;4354;49.832;10.746;2023-04-24T02:45:43;10.60;99.90
8633;DHT22;4354;49.832;10.746;2023-04-24T02:48:10;10.60;99.90
8633;DHT22;4354;49.832;10.746;2023-04-24T02:50:37;10.70;1.00
8633;DHT22;4354;49.832;10.746;2023-04-24T02:53:04;10.60;1.00
8633;DHT22;4354;49.832;10.746;2023-04-24T02:55:31;10.60;1.00
8633;DHT22;4354;49.832;10.746;2023-04-24T02:57:57;10.60;1.00
8633;DHT22;4354;49.832;10.746;2023-04-24T03:00:24;10.60;1.00
8633;DHT22;4354;49.832;10.746;2023-04-24T03:02:51;10.60;1.00
8633;DHT22;4354;49.832;10.746;2023-04-24T03:05:18;10.70;99.90
8633;DHT22;4354;49.832;10.746;2023-04-24T03:07:45;10.60;99.90
8633;DHT22;4354;49.832;10.746;2023-04-24T03:10:12;10.50;99.90
8633;DHT22;4354;49.832;10.746;2023-04-24T03:12:39;10.50;1.00
8633;DHT22;4354;49.832;10.746;2023-04-24T03:15:06;10.40;1.00
8633;DHT22;4354;49.832;10.746;2023-04-24T03:17:33;10.40;1.00
8633;DHT22;4354;49.832;10.746;2023-04-24T03:20:00;10.40;1.00
8633;DHT22;4354;49.832;10.746;2023-04-24T03:22:27;10.40;1.00
8633;DHT22;4354;49.832;10.746;2023-04-24T03:24:54;10.40;1.00
8633;DHT22;4354;49.832;10.746;2023-04-24T03:27:22;10.40;1.00
8633;DHT22;4354;49.832;10.746;2023-04-24T03:29:48;10.30;1.00
8633;DHT22;4354;49.832;10.746;2023-04-24T03:32:20;10.30;1.00
8633;DHT22;4354;49.832;10.746;2023-04-24T03:34:50;10.30;1.00
8633;DHT22;4354;49.832;10.746;2023-04-24T03:37:17;10.30;1.00
8633;DHT22;4354;49.832;10.746;2023-04-24T03:39:44;10.20;1.00
8633;DHT22;4354;49.832;10.746;2023-04-24T03:42:11;10.10;1.00
8633;DHT22;4354;49.832;10.746;2023-04-24T03:44:38;10.20;1.00
8633;DHT22;4354;49.832;10.746;2023-04-24T03:47:04;10.10;1.00
8633;DHT22;4354;49.832;10.746;2023-04-24T03:49:31;10.10;1.00
8633;DHT22;4354;49.832;10.746;2023-04-24T03:51:58;10.10;1.00
8633;DHT22;4354;49.832;10.746;2023-04-24T03:54:25;10.10;1.00
8633;DHT22;4354;49.832;10.746;2023-04-24T03:56:53;10.10;1.00
8633;DHT22;4354;49.832;10.746;2023-04-24T03:59:20;10.10;1.00
8633;DHT22;4354;49.832;10.746;2023-04-24T04:01:47;10.10;1.00
8633;DHT22;4354;49.832;10.746;2023-04-24T04:04:13;10.10;1.00
8633;DHT22;4354;49.832;10.746;2023-04-24T04:06:41;10.10;1.00
8633;DHT22;4354;49.832;10.746;2023-04-24T04:09:08;10.00;1.00
8633;DHT22;4354;49.832;10.746;2023-04-24T04:11:35;10.00;1.00
8633;DHT22;4354;49.832;10.746;2023-04-24T04:14:02;10.00;1.00
8633;DHT22;4354;49.832;10.746;2023-04-24T04:16:29;10.00;1.00
8633;DHT22;4354;49.832;10.746;2023-04-24T04:18:56;10.00;1.00
8633;DHT22;4354;49.832;10.746;2023-04-24T04:21:23;10.00;1.00
8633;DHT22;4354;49.832;10.746;2023-04-24T04:23:50;10.00;1.00
8633;DHT22;4354;49.832;10.746;2023-04-24T04:26:17;9.90;1.00
8633;DHT22;4354;49.832;10.746;2023-04-24T04:28:45;9.90;1.00
8633;DHT22;4354;49.832;10.746;2023-04-24T04:31:14;9.90;1.00
8633;DHT22;4354;49.832;10.746;2023-04-24T04:33:40;9.90;1.00
8633;DHT22;4354;49.832;10.746;2023-04-24T04:36:07;9.90;1.00
8633;DHT22;4354;49.832;10.746;2023-04-24T04:38:35;10.00;1.00
8633;DHT22;4354;49.832;10.746;2023-04-24T04:41:01;9.90;1.00
8633;DHT22;4354;49.832;10.746;2023-04-24T04:43:29;9.90;1.00
8633;DHT22;4354;49.832;10.746;2023-04-24T04:45:57;10.00;1.00
8633;DHT22;4354;49.832;10.746;2023-04-24T04:48:24;10.10;1.00
8633;DHT22;4354;49.832;10.746;2023-04-24T04:50:51;10.10;1.00
8633;DHT22;4354;49.832;10.746;2023-04-24T04:53:18;10.10;1.00
8633;DHT22;4354;49.832;10.746;2023-04-24T04:55:45;10.10;1.00
8633;DHT22;4354;49.832;10.746;2023-04-24T04:58:12;10.20;1.00
8633;DHT22;4354;49.832;10.746;2023-04-24T05:00:39;10.30;1.00
8633;DHT22;4354;49.832;10.746;2023-04-24T05:03:06;10.30;1.00
8633;DHT22;4354;49.832;10.746;2023-04-24T05:05:47;10.40;99.90
8633;DHT22;4354;49.832;10.746;2023-04-24T05:08:14;10.50;99.90
8633;DHT22;4354;49.832;10.746;2023-04-24T05:10:45;10.60;1.00
8633;DHT22;4354;49.832;10.746;2023-04-24T05:13:11;10.70;1.00
8633;DHT22;4354;49.832;10.746;2023-04-24T05:15:39;10.70;1.00
8633;DHT22;4354;49.832;10.746;2023-04-24T05:18:06;10.60;99.90
8633;DHT22;4354;49.832;10.746;2023-04-24T05:20:33;10.60;1.00
8633;DHT22;4354;49.832;10.746;2023-04-24T05:23:00;10.70;1.00
8633;DHT22;4354;49.832;10.746;2023-04-24T05:25:27;10.70;1.00
8633;DHT22;4354;49.832;10.746;2023-04-24T05:27:54;10.70;1.00
8633;DHT22;4354;49.832;10.746;2023-04-24T05:30:21;10.70;1.00
8633;DHT22;4354;49.832;10.746;2023-04-24T05:32:47;10.70;99.90
8633;DHT22;4354;49.832;10.746;2023-04-24T05:35:14;10.80;1.00
8633;DHT22;4354;49.832;10.746;2023-04-24T05:37:41;10.90;1.00
8633;DHT22;4354;49.832;10.746;2023-04-24T05:40:08;10.90;1.00
8633;DHT22;4354;49.832;10.746;2023-04-24T05:42:35;11.00;1.00
8633;DHT22;4354;49.832;10.746;2023-04-24T05:45:03;11.00;99.90
8633;DHT22;4354;49.832;10.746;2023-04-24T05:47:30;11.10;99.90
8633;DHT22;4354;49.832;10.746;2023-04-24T05:49:57;11.20;99.90
8633;DHT22;4354;49.832;10.746;2023-04-24T05:52:24;11.30;1.00
8633;DHT22;4354;49.832;10.746;2023-04-24T05:54:52;11.40;99.90
8633;DHT22;4354;49.832;10.746;2023-04-24T05:57:19;11.60;1.00
8633;DHT22;4354;49.832;10.746;2023-04-24T05:59:46;11.60;1.00
8633;DHT22;4354;49.832;10.746;2023-04-24T06:02:13;11.60;1.00
8633;DHT22;4354;49.832;10.746;2023-04-24T06:04:40;11.50;1.00
8633;DHT22;4354;49.832;10.746;2023-04-24T06:07:07;11.40;1.00
8633;DHT22;4354;49.832;10.746;2023-04-24T06:09:33;11.20;1.00
8633;DHT22;4354;49.832;10.746;2023-04-24T06:12:00;11.10;1.00
8633;DHT22;4354;49.832;10.746;2023-04-24T06:14:27;11.10;1.00
8633;DHT22;4354;49.832;10.746;2023-04-24T06:16:54;11.00;1.00
8633;DHT22;4354;49.832;10.746;2023-04-24T06:19:20;11.00;1.00
8633;DHT22;4354;49.832;10.746;2023-04-24T06:21:47;11.00;99.90
8633;DHT22;4354;49.832;10.746;2023-04-24T06:24:14;11.10;1.00
8633;DHT22;4354;49.832;10.746;2023-04-24T06:26:43;11.10;1.00
8633;DHT22;4354;49.832;10.746;2023-04-24T06:29:09;11.20;1.00
8633;DHT22;4354;49.832;10.746;2023-04-24T06:31:36;11.30;1.00
8633;DHT22;4354;49.832;10.746;2023-04-24T06:34:04;11.40;99.90
8633;DHT22;4354;49.832;10.746;2023-04-24T06:36:31;11.50;99.90
8633;DHT22;4354;49.832;10.746;2023-04-24T06:39:01;11.70;99.90
8633;DHT22;4354;49.832;10.746;2023-04-24T06:41:28;11.80;99.90
8633;DHT22;4354;49.832;10.746;2023-04-24T06:43:55;12.00;1.00
8633;DHT22;4354;49.832;10.746;2023-04-24T06:46:22;12.10;1.00
8633;DHT22;4354;49.832;10.746;2023-04-24T06:48:53;12.10;1.00
8633;DHT22;4354;49.832;10.746;2023-04-24T06:51:23;12.20;1.00
8633;DHT22;4354;49.832;10.746;2023-04-24T06:53:51;12.20;1.00
8633;DHT22;4354;49.832;10.746;2023-04-24T06:56:18;12.30;1.00
8633;DHT22;4354;49.832;10.746;2023-04-24T06:58:46;12.40;1.00
8633;DHT22;4354;49.832;10.746;2023-04-24T07:01:12;12.60;1.00
8633;DHT22;4354;49.832;10.746;2023-04-24T07:03:39;12.70;1.00
8633;DHT22;4354;49.832;10.746;2023-04-24T07:06:06;12.90;1.00
8633;DHT22;4354;49.832;10.746;2023-04-24T07:08:33;13.00;99.90
8633;DHT22;4354;49.832;10.746;2023-04-24T07:11:02;13.00;1.00
8633;DHT22;4354;49.832;10.746;2023-04-24T07:13:29;13.00;1.00
8633;DHT22;4354;49.832;10.746;2023-04-24T07:15:56;13.20;1.00
8633;DHT22;4354;49.832;10.746;2023-04-24T07:18:23;13.50;1.00
8633;DHT22;4354;49.832;10.746;2023-04-24T07:20:50;14.00;1.00
8633;DHT22;4354;49.832;10.746;2023-04-24T07:23:17;14.30;1.00
8633;DHT22;4354;49.832;10.746;2023-04-24T07:25:44;14.70;1.00
8633;DHT22;4354;49.832;10.746;2023-04-24T07:28:11;14.90;1.00
8633;DHT22;4354;49.832;10.746;2023-04-24T07:30:38;15.60;1.00
8633;DHT22;4354;49.832;10.746;2023-04-24T07:33:05;16.50;99.90
8633;DHT22;4354;49.832;10.746;2023-04-24T07:35:33;17.10;99.90
8633;DHT22;4354;49.832;10.746;2023-04-24T07:38:01;17.40;99.90
8633;DHT22;4354;49.832;10.746;2023-04-24T07:40:27;17.70;99.90
8633;DHT22;4354;49.832;10.746;2023-04-24T07:42:54;18.50;99.90
8633;DHT22;4354;49.832;10.746;2023-04-24T07:45:21;19.80;99.90
8633;DHT22;4354;49.832;10.746;2023-04-24T07:47:50;20.80;99.90
8633;DHT22;4354;49.832;10.746;2023-04-24T07:50:17;21.70;95.70
8633;DHT22;4354;49.832;10.746;2023-04-24T07:52:44;22.70;66.10
8633;DHT22;4354;49.832;10.746;2023-04-24T07:55:11;21.80;55.60
8633;DHT22;4354;49.832;10.746;2023-04-24T07:57:37;21.50;57.30
8633;DHT22;4354;49.832;10.746;2023-04-24T08:00:05;21.80;51.90
8633;DHT22;4354;49.832;10.746;2023-04-24T08:02:32;20.90;51.50
8633;DHT22;4354;49.832;10.746;2023-04-24T08:04:59;20.30;52.70
8633;DHT22;4354;49.832;10.746;2023-04-24T08:07:26;19.60;51.20
8633;DHT22;4354;49.832;10.746;2023-04-24T08:09:53;18.50;59.50
8633;DHT22;4354;49.832;10.746;2023-04-24T08:12:20;17.30;65.90
8633;DHT22;4354;49.832;10.746;2023-04-24T08:14:47;17.20;71.90
8633;DHT22;4354;49.832;10.746;2023-04-24T08:17:13;17.50;75.50
8633;DHT22;4354;49.832;10.746;2023-04-24T08:19:41;18.80;73.40
8633;DHT22;4354;49.832;10.746;2023-04-24T08:22:17;19.80;60.20
8633;DHT22;4354;49.832;10.746;2023-04-24T08:24:43;19.20;59.00
8633;DHT22;4354;49.832;10.746;2023-04-24T08:27:10;18.70;58.80
8633;DHT22;4354;49.832;10.746;2023-04-24T08:29:37;17.60;62.40
8633;DHT22;4354;49.832;10.746;2023-04-24T08:32:04;17.20;68.20
8633;DHT22;4354;49.832;10.746;2023-04-24T08:34:31;16.60;76.30
8633;DHT22;4354;49.832;10.746;2023-04-24T08:36:58;17.70;73.80
8633;DHT22;4354;49.832;10.746;2023-04-24T08:39:24;18.40;65.60
8633;DHT22;4354;49.832;10.746;2023-04-24T08:41:52;18.30;63.90
8633;DHT22;4354;49.832;10.746;2023-04-24T08:44:19;17.80;63.10
8633;DHT22;4354;49.832;10.746;2023-04-24T08:46:48;17.50;93.00
8633;DHT22;4354;49.832;10.746;2023-04-24T08:49:15;17.20;67.60
8633;DHT22;4354;49.832;10.746;2023-04-24T08:51:43;16.80;68.90
8633;DHT22;4354;49.832;10.746;2023-04-24T08:54:12;16.30;73.00
8633;DHT22;4354;49.832;10.746;2023-04-24T08:56:40;15.70;78.00
8633;DHT22;4354;49.832;10.746;2023-04-24T08:59:10;15.20;81.00
8633;DHT22;4354;49.832;10.746;2023-04-24T09:01:37;15.00;84.80
8633;DHT22;4354;49.832;10.746;2023-04-24T09:04:08;15.00;84.00
8633;DHT22;4354;49.832;10.746;2023-04-24T09:06:37;15.00;87.00
8633;DHT22;4354;49.832;10.746;2023-04-24T09:09:04;15.30;88.40
8633;DHT22;4354;49.832;10.746;2023-04-24T09:11:32;15.60;88.70
8633;DHT22;4354;49.832;10.746;2023-04-24T09:13:59;16.00;84.50
8633;DHT22;4354;49.832;10.746;2023-04-24T09:16:27;16.10;84.70
8633;DHT22;4354;49.832;10.746;2023-04-24T09:18:55;16.00;80.90
8633;DHT22;4354;49.832;10.746;2023-04-24T09:21:22;15.80;84.80
8633;DHT22;4354;49.832;10.746;2023-04-24T09:24:00;15.40;86.30
8633;DHT22;4354;49.832;10.746;2023-04-24T09:26:30;14.90;84.30
8633;DHT22;4354;49.832;10.746;2023-04-24T09:28:59;14.40;88.50
8633;DHT22;4354;49.832;10.746;2023-04-24T09:31:27;14.10;90.90
8633;DHT22;4354;49.832;10.746;2023-04-24T09:34:00;13.90;92.90
8633;DHT22;4354;49.832;10.746;2023-04-24T09:36:30;13.90;94.10
8633;DHT22;4354;49.832;10.746;2023-04-24T09:39:03;14.00;95.80
8633;DHT22;4354;49.832;10.746;2023-04-24T09:41:32;14.20;95.90
8633;DHT22;4354;49.832;10.746;2023-04-24T09:44:16;14.10;94.50
8633;DHT22;4354;49.832;10.746;2023-04-24T09:46:45;13.90;96.40
8633;DHT22;4354;49.832;10.746;2023-04-24T09:49:15;13.90;97.70
8633;DHT22;4354;49.832;10.746;2023-04-24T09:51:43;13.70;98.00
8633;DHT22;4354;49.832;10.746;2023-04-24T09:54:18;13.60;97.40
8633;DHT22;4354;49.832;10.746;2023-04-24T09:56:49;13.30;99.90
8633;DHT22;4354;49.832;10.746;2023-04-24T09:59:18;13.10;99.90
8633;DHT22;4354;49.832;10.746;2023-04-24T10:01:46;12.90;99.90
8633;DHT22;4354;49.832;10.746;2023-04-24T10:04:23;12.70;99.90
8633;DHT22;4354;49.832;10.746;2023-04-24T10:06:52;12.60;99.90
8633;DHT22;4354;49.832;10.746;2023-04-24T10:09:25;12.60;99.90
8633;DHT22;4354;49.832;10.746;2023-04-24T10:11:54;14.40;99.90
8633;DHT22;4354;49.832;10.746;2023-04-24T10:14:24;16.50;99.90
8633;DHT22;4354;49.832;10.746;2023-04-24T10:16:53;18.80;99.90
8633;DHT22;4354;49.832;10.746;2023-04-24T10:19:20;19.10;70.30
8633;DHT22;4354;49.832;10.746;2023-04-24T10:21:47;18.70;64.40
8633;DHT22;4354;49.832;10.746;2023-04-24T10:24:16;19.10;62.80
8633;DHT22;4354;49.832;10.746;2023-04-24T10:26:45;19.40;58.60
8633;DHT22;4354;49.832;10.746;2023-04-24T10:29:13;19.50;50.60
8633;DHT22;4354;49.832;10.746;2023-04-24T10:31:42;19.50;51.30
8633;DHT22;4354;49.832;10.746;2023-04-24T10:34:13;19.90;49.40
8633;DHT22;4354;49.832;10.746;2023-04-24T10:36:51;20.80;50.90
8633;DHT22;4354;49.832;10.746;2023-04-24T10:39:22;22.70;38.80
8633;DHT22;4354;49.832;10.746;2023-04-24T10:41:54;24.50;23.40
8633;DHT22;4354;49.832;10.746;2023-04-24T10:44:24;25.00;13.40
8633;DHT22;4354;49.832;10.746;2023-04-24T10:46:55;25.20;4.70
8633;DHT22;4354;49.832;10.746;2023-04-24T10:49:30;24.80;20.70
8633;DHT22;4354;49.832;10.746;2023-04-24T10:52:04;23.80;4.30
8633;DHT22;4354;49.832;10.746;2023-04-24T10:59:47;21.00;30.70
8633;DHT22;4354;49.832;10.746;2023-04-24T11:02:14;20.70;15.00
8633;DHT22;4354;49.832;10.746;2023-04-24T11:04:42;20.30;19.50
8633;DHT22;4354;49.832;10.746;2023-04-24T11:07:10;21.10;14.90
8633;DHT22;4354;49.832;10.746;2023-04-24T11:09:37;20.50;12.80
8633;DHT22;4354;49.832;10.746;2023-04-24T11:12:09;19.70;13.90
8633;DHT22;4354;49.832;10.746;2023-04-24T11:15:09;19.20;16.50
8633;DHT22;4354;49.832;10.746;2023-04-24T11:17:37;17.90;21.50
8633;DHT22;4354;49.832;10.746;2023-04-24T11:20:11;17.60;28.90
8633;DHT22;4354;49.832;10.746;2023-04-24T11:22:54;17.80;28.10
8633;DHT22;4354;49.832;10.746;2023-04-24T11:25:22;18.00;26.80
8633;DHT22;4354;49.832;10.746;2023-04-24T11:27:49;18.80;23.40
8633;DHT22;4354;49.832;10.746;2023-04-24T11:30:18;19.90;20.30
8633;DHT22;4354;49.832;10.746;2023-04-24T11:32:50;21.00;15.60
8633;DHT22;4354;49.832;10.746;2023-04-24T11:35:19;22.10;11.90
8633;DHT22;4354;49.832;10.746;2023-04-24T11:37:49;22.30;5.80
8633;DHT22;4354;49.832;10.746;2023-04-24T11:40:37;22.10;4.80
8633;DHT22;4354;49.832;10.746;2023-04-24T11:43:06;20.90;5.70
8633;DHT22;4354;49.832;10.746;2023-04-24T11:45:33;19.80;9.00
8633;DHT22;4354;49.832;10.746;2023-04-24T11:48:03;18.50;12.60
8633;DHT22;4354;49.832;10.746;2023-04-24T11:50:30;17.10;42.40
8633;DHT22;4354;49.832;10.746;2023-04-24T11:52:57;16.10;24.10
8633;DHT22;4354;49.832;10.746;2023-04-24T11:55:26;15.50;29.10
8633;DHT22;4354;49.832;10.746;2023-04-24T11:57:58;15.00;33.40
8633;DHT22;4354;49.832;10.746;2023-04-24T12:00:30;14.70;37.30
8633;DHT22;4354;49.832;10.746;2023-04-24T12:03:10;14.30;41.80
8633;DHT22;4354;49.832;10.746;2023-04-24T12:05:41;13.90;43.50
8633;DHT22;4354;49.832;10.746;2023-04-24T12:08:08;13.50;47.40
8633;DHT22;4354;49.832;10.746;2023-04-24T12:10:35;13.30;49.70
8633;DHT22;4354;49.832;10.746;2023-04-24T12:13:02;13.00;55.70
8633;DHT22;4354;49.832;10.746;2023-04-24T12:15:29;12.90;59.50
8633;DHT22;4354;49.832;10.746;2023-04-24T12:17:57;12.90;61.00
8633;DHT22;4354;49.832;10.746;2023-04-24T12:22:54;13.40;65.10
8633;DHT22;4354;49.832;10.746;2023-04-24T12:25:25;13.70;64.50
8633;DHT22;4354;49.832;10.746;2023-04-24T12:27:54;13.80;61.50
8633;DHT22;4354;49.832;10.746;2023-04-24T12:30:26;13.60;60.30
8633;DHT22;4354;49.832;10.746;2023-04-24T12:32:57;13.50;62.30
8633;DHT22;4354;49.832;10.746;2023-04-24T12:35:28;13.30;65.40
8633;DHT22;4354;49.832;10.746;2023-04-24T12:37:55;13.20;67.90
8633;DHT22;4354;49.832;10.746;2023-04-24T12:40:22;13.20;67.40
8633;DHT22;4354;49.832;10.746;2023-04-24T12:42:52;13.30;72.70
8633;DHT22;4354;49.832;10.746;2023-04-24T12:45:19;13.60;67.90
8633;DHT22;4354;49.832;10.746;2023-04-24T12:47:46;13.70;67.10
8633;DHT22;4354;49.832;10.746;2023-04-24T12:50:15;14.10;64.30
8633;DHT22;4354;49.832;10.746;2023-04-24T12:52:42;15.20;64.40
8633;DHT22;4354;49.832;10.746;2023-04-24T12:55:09;16.10;53.50
8633;DHT22;4354;49.832;10.746;2023-04-24T12:57:38;16.70;47.90
8633;DHT22;4354;49.832;10.746;2023-04-24T13:00:07;16.60;48.10
8633;DHT22;4354;49.832;10.746;2023-04-24T13:02:35;16.30;48.70
8633;DHT22;4354;49.832;10.746;2023-04-24T13:05:02;16.00;44.90
8633;DHT22;4354;49.832;10.746;2023-04-24T13:07:29;15.60;47.30
8633;DHT22;4354;49.832;10.746;2023-04-24T13:09:56;16.20;49.60
8633;DHT22;4354;49.832;10.746;2023-04-24T13:12:27;16.60;47.20
8633;DHT22;4354;49.832;10.746;2023-04-24T13:14:54;17.10;46.00
8633;DHT22;4354;49.832;10.746;2023-04-24T13:17:21;17.80;42.80
8633;DHT22;4354;49.832;10.746;2023-04-24T13:19:49;18.50;35.40
8633;DHT22;4354;49.832;10.746;2023-04-24T13:22:16;18.80;30.00
8633;DHT22;4354;49.832;10.746;2023-04-24T13:24:45;19.30;52.10
8633;DHT22;4354;49.832;10.746;2023-04-24T13:27:12;18.70;26.80
8633;DHT22;4354;49.832;10.746;2023-04-24T13:29:38;18.30;30.90
8633;DHT22;4354;49.832;10.746;2023-04-24T13:32:05;18.40;29.70
8633;DHT22;4354;49.832;10.746;2023-04-24T13:34:32;18.10;29.50
8633;DHT22;4354;49.832;10.746;2023-04-24T13:37:01;17.50;28.50
8633;DHT22;4354;49.832;10.746;2023-04-24T13:39:28;17.00;32.80
8633;DHT22;4354;49.832;10.746;2023-04-24T13:41:54;16.40;34.40
8633;DHT22;4354;49.832;10.746;2023-04-24T13:44:22;16.00;41.70
8633;DHT22;4354;49.832;10.746;2023-04-24T13:46:52;15.70;44.40
8633;DHT22;4354;49.832;10.746;2023-04-24T13:49:21;15.40;45.80
8633;DHT22;4354;49.832;10.746;2023-04-24T13:51:48;15.10;72.10
8633;DHT22;4354;49.832;10.746;2023-04-24T13:54:15;14.90;44.80
8633;DHT22;4354;49.832;10.746;2023-04-24T13:56:42;14.80;46.40
8633;DHT22;4354;49.832;10.746;2023-04-24T13:59:09;14.80;45.80
8633;DHT22;4354;49.832;10.746;2023-04-24T14:01:36;14.70;46.10
8633;DHT22;4354;49.832;10.746;2023-04-24T14:04:03;14.50;46.60
8633;DHT22;4354;49.832;10.746;2023-04-24T14:06:30;14.00;50.90
8633;DHT22;4354;49.832;10.746;2023-04-24T14:08:57;13.60;55.40
8633;DHT22;4354;49.832;10.746;2023-04-24T14:11:26;13.40;58.50
8633;DHT22;4354;49.832;10.746;2023-04-24T14:13:54;13.20;60.00
8633;DHT22;4354;49.832;10.746;2023-04-24T14:16:22;13.00;62.50
8633;DHT22;4354;49.832;10.746;2023-04-24T14:18:49;13.00;61.30
8633;DHT22;4354;49.832;10.746;2023-04-24T14:21:17;12.90;64.70
8633;DHT22;4354;49.832;10.746;2023-04-24T14:23:44;12.90;64.80
8633;DHT22;4354;49.832;10.746;2023-04-24T14:26:12;13.00;67.00
8633;DHT22;4354;49.832;10.746;2023-04-24T14:28:39;13.30;64.30
8633;DHT22;4354;49.832;10.746;2023-04-24T14:31:06;13.70;60.40
8633;DHT22;4354;49.832;10.746;2023-04-24T14:33:32;14.00;58.40
8633;DHT22;4354;49.832;10.746;2023-04-24T14:35:59;14.10;60.10
8633;DHT22;4354;49.832;10.746;2023-04-24T14:38:26;14.10;59.50
8633;DHT22;4354;49.832;10.746;2023-04-24T14:40:53;14.10;58.20
8633;DHT22;4354;49.832;10.746;2023-04-24T14:43:22;14.00;59.60
8633;DHT22;4354;49.832;10.746;2023-04-24T14:45:49;13.90;60.80
8633;DHT22;4354;49.832;10.746;2023-04-24T14:48:16;13.90;57.90
8633;DHT22;4354;49.832;10.746;2023-04-24T14:50:44;13.90;60.80
8633;DHT22;4354;49.832;10.746;2023-04-24T14:53:11;13.90;61.30
8633;DHT22;4354;49.832;10.746;2023-04-24T14:55:38;13.90;60.10
8633;DHT22;4354;49.832;10.746;2023-04-24T14:58:05;13.80;60.80
8633;DHT22;4354;49.832;10.746;2023-04-24T15:00:32;13.70;59.50
8633;DHT22;4354;49.832;10.746;2023-04-24T15:03:00;13.50;61.70
8633;DHT22;4354;49.832;10.746;2023-04-24T15:05:28;13.20;62.80
8633;DHT22;4354;49.832;10.746;2023-04-24T15:07:55;13.00;63.30
8633;DHT22;4354;49.832;10.746;2023-04-24T15:10:22;12.90;66.40
8633;DHT22;4354;49.832;10.746;2023-04-24T15:12:50;12.80;70.10
8633;DHT22;4354;49.832;10.746;2023-04-24T15:15:17;12.80;70.90
8633;DHT22;4354;49.832;10.746;2023-04-24T15:17:44;12.70;71.50
8633;DHT22;4354;49.832;10.746;2023-04-24T15:20:11;12.50;74.20
8633;DHT22;4354;49.832;10.746;2023-04-24T15:22:38;12.30;74.90
8633;DHT22;4354;49.832;10.746;2023-04-24T15:25:05;12.20;75.30
8633;DHT22;4354;49.832;10.746;2023-04-24T15:27:45;12.10;77.40
8633;DHT22;4354;49.832;10.746;2023-04-24T15:30:13;12.20;82.50
8633;DHT22;4354;49.832;10.746;2023-04-24T15:32:40;12.20;82.70
8633;DHT22;4354;49.832;10.746;2023-04-24T15:35:07;12.50;81.10
8633;DHT22;4354;49.832;10.746;2023-04-24T15:37:37;12.80;75.00
8633;DHT22;4354;49.832;10.746;2023-04-24T15:40:04;12.80;78.00
8633;DHT22;4354;49.832;10.746;2023-04-24T15:42:34;12.90;78.60
8633;DHT22;4354;49.832;10.746;2023-04-24T15:45:01;12.80;77.50
8633;DHT22;4354;49.832;10.746;2023-04-24T15:47:28;12.90;74.30
8633;DHT22;4354;49.832;10.746;2023-04-24T15:49:55;12.80;96.30
8633;DHT22;4354;49.832;10.746;2023-04-24T15:52:21;12.70;77.80
8633;DHT22;4354;49.832;10.746;2023-04-24T15:54:48;12.70;79.60
8633;DHT22;4354;49.832;10.746;2023-04-24T15:57:15;12.70;81.60
8633;DHT22;4354;49.832;10.746;2023-04-24T15:59:43;12.70;80.00
8633;DHT22;4354;49.832;10.746;2023-04-24T16:02:12;12.50;79.70
8633;DHT22;4354;49.832;10.746;2023-04-24T16:04:45;12.50;79.60